sensor_id;sensor_type;location;lat;lon;timestamp;pressure;altitude;pressure_sealevel;temperature;humidity
36630;BME280;36256;42.154;23.002;2023-04-28T00:00:02;97492.25;;;6.90;77.85
36630;BME280;36256;42.154;23.002;2023-04-28T00:02:30;97493.81;;;6.91;78.13
36630;BME280;36256;42.154;23.002;2023-04-28T00:04:57;97490.28;;;6.87;78.16
36630;BME280;36256;42.154;23.002;2023-04-28T00:07:23;97486.78;;;6.83;79.14
36630;BME280;36256;42.154;23.002;2023-04-28T00:09:50;97488.50;;;6.77;79.46
36630;BME280;36256;42.154;23.002;2023-04-28T00:12:17;97495.03;;;6.67;80.20
36630;BME280;36256;42.154;23.002;2023-04-28T00:14:43;97493.41;;;6.69;79.97
36630;BME280;36256;42.154;23.002;2023-04-28T00:17:10;97491.88;;;6.65;80.70
36630;BME280;36256;42.154;23.002;2023-04-28T00:19:37;97487.94;;;6.62;80.42
36630;BME280;36256;42.154;23.002;2023-04-28T00:22:04;97492.00;;;6.58;80.69
36630;BME280;36256;42.154;23.002;2023-04-28T00:24:31;97492.81;;;6.55;80.97
36630;BME280;36256;42.154;23.002;2023-04-28T00:26:59;97485.38;;;6.48;81.15
36630;BME280;36256;42.154;23.002;2023-04-28T00:29:27;97488.34;;;6.38;82.19
36630;BME280;36256;42.154;23.002;2023-04-28T00:31:54;97491.50;;;6.40;81.88
36630;BME280;36256;42.154;23.002;2023-04-28T00:34:20;97489.63;;;6.29;82.31
36630;BME280;36256;42.154;23.002;2023-04-28T00:36:47;97496.34;;;6.36;82.30
36630;BME280;36256;42.154;23.002;2023-04-28T00:39:14;97499.50;;;6.38;81.50
36630;BME280;36256;42.154;23.002;2023-04-28T00:41:43;97471.09;;;6.19;81.56
36630;BME280;36256;42.154;23.002;2023-04-28T00:44:10;97501.84;;;6.39;81.29
36630;BME280;36256;42.154;23.002;2023-04-28T00:46:37;97498.00;;;6.29;81.79
36630;BME280;36256;42.154;23.002;2023-04-28T00:49:04;97504.44;;;6.26;82.21
36630;BME280;36256;42.154;23.002;2023-04-28T00:51:31;97506.34;;;6.29;82.56
36630;BME280;36256;42.154;23.002;2023-04-28T00:53:59;97502.06;;;6.25;82.57
36630;BME280;36256;42.154;23.002;2023-04-28T00:56:27;97498.28;;;6.12;84.17
36630;BME280;36256;42.154;23.002;2023-04-28T00:58:56;97496.28;;;6.12;84.09
36630;BME280;36256;42.154;23.002;2023-04-28T01:01:23;97500.00;;;6.02;83.91
36630;BME280;36256;42.154;23.002;2023-04-28T01:03:50;97500.00;;;6.02;84.00
36630;BME280;36256;42.154;23.002;2023-04-28T01:06:18;97502.03;;;5.98;83.56
36630;BME280;36256;42.154;23.002;2023-04-28T01:08:48;97496.03;;;6.00;83.46
36630;BME280;36256;42.154;23.002;2023-04-28T01:11:18;97503.94;;;6.05;83.35
36630;BME280;36256;42.154;23.002;2023-04-28T01:13:45;97500.84;;;5.99;83.07
36630;BME280;36256;42.154;23.002;2023-04-28T01:16:12;97500.50;;;5.94;83.89
36630;BME280;36256;42.154;23.002;2023-04-28T01:18:41;97507.19;;;6.00;83.31
36630;BME280;36256;42.154;23.002;2023-04-28T01:21:12;97502.84;;;5.99;84.05
36630;BME280;36256;42.154;23.002;2023-04-28T01:23:38;97503.94;;;6.05;82.93
36630;BME280;36256;42.154;23.002;2023-04-28T01:26:05;97501.59;;;6.03;82.53
36630;BME280;36256;42.154;23.002;2023-04-28T01:28:32;97504.75;;;6.05;82.24
36630;BME280;36256;42.154;23.002;2023-04-28T01:30:58;97509.81;;;6.10;81.83
36630;BME280;36256;42.154;23.002;2023-04-28T01:33:25;97502.25;;;6.11;81.89
36630;BME280;36256;42.154;23.002;2023-04-28T01:35:56;97503.06;;;6.11;80.85
36630;BME280;36256;42.154;23.002;2023-04-28T01:38:23;97496.66;;;6.14;80.82
36630;BME280;36256;42.154;23.002;2023-04-28T01:40:49;97499.47;;;6.11;80.72
36630;BME280;36256;42.154;23.002;2023-04-28T01:43:16;97498.31;;;6.08;79.21
36630;BME280;36256;42.154;23.002;2023-04-28T01:45:43;97497.84;;;6.13;79.63
36630;BME280;36256;42.154;23.002;2023-04-28T01:48:09;97503.34;;;6.20;79.11
36630;BME280;36256;42.154;23.002;2023-04-28T01:50:36;97492.66;;;6.15;79.01
36630;BME280;36256;42.154;23.002;2023-04-28T01:53:03;97485.50;;;6.14;79.32
36630;BME280;36256;42.154;23.002;2023-04-28T01:55:29;97488.66;;;6.16;78.45
36630;BME280;36256;42.154;23.002;2023-04-28T01:57:56;97494.19;;;6.20;78.96
36630;BME280;36256;42.154;23.002;2023-04-28T02:00:24;97490.22;;;6.17;79.33
36630;BME280;36256;42.154;23.002;2023-04-28T02:02:51;97499.81;;;6.16;79.29
36630;BME280;36256;42.154;23.002;2023-04-28T02:05:18;97495.44;;;6.15;80.00
36630;BME280;36256;42.154;23.002;2023-04-28T02:07:44;97507.44;;;6.12;80.60
36630;BME280;36256;42.154;23.002;2023-04-28T02:10:11;97502.31;;;6.07;80.27
36630;BME280;36256;42.154;23.002;2023-04-28T02:12:38;97504.66;;;6.12;79.63
36630;BME280;36256;42.154;23.002;2023-04-28T02:15:07;97500.72;;;6.06;78.66
36630;BME280;36256;42.154;23.002;2023-04-28T02:17:34;97491.69;;;5.99;78.09
36630;BME280;36256;42.154;23.002;2023-04-28T02:20:01;97510.22;;;6.12;79.51
36630;BME280;36256;42.154;23.002;2023-04-28T02:22:27;97511.78;;;6.13;79.39
36630;BME280;36256;42.154;23.002;2023-04-28T02:24:54;97514.19;;;6.11;78.04
36630;BME280;36256;42.154;23.002;2023-04-28T02:27:21;97515.41;;;6.10;79.04
36630;BME280;36256;42.154;23.002;2023-04-28T02:29:48;97509.44;;;6.08;79.43
36630;BME280;36256;42.154;23.002;2023-04-28T02:32:14;97513.88;;;6.06;77.95
36630;BME280;36256;42.154;23.002;2023-04-28T02:34:41;97512.34;;;6.01;77.70
36630;BME280;36256;42.154;23.002;2023-04-28T02:37:07;97517.19;;;5.97;78.28
36630;BME280;36256;42.154;23.002;2023-04-28T02:39:34;97514.81;;;5.96;78.20
36630;BME280;36256;42.154;23.002;2023-04-28T02:42:01;97518.38;;;5.96;78.96
36630;BME280;36256;42.154;23.002;2023-04-28T02:44:30;97520.75;;;5.98;79.18
36630;BME280;36256;42.154;23.002;2023-04-28T02:46:57;97526.38;;;5.94;78.85
36630;BME280;36256;42.154;23.002;2023-04-28T02:49:24;97523.22;;;5.92;79.98
36630;BME280;36256;42.154;23.002;2023-04-28T02:51:50;97523.22;;;5.92;80.09
36630;BME280;36256;42.154;23.002;2023-04-28T02:54:17;97525.69;;;5.83;80.26
36630;BME280;36256;42.154;23.002;2023-04-28T02:56:56;97526.50;;;5.84;79.85
36630;BME280;36256;42.154;23.002;2023-04-28T02:59:23;97530.81;;;5.88;80.44
36630;BME280;36256;42.154;23.002;2023-04-28T03:01:50;97536.03;;;5.86;79.95
36630;BME280;36256;42.154;23.002;2023-04-28T03:04:19;97540.03;;;5.82;79.81
36630;BME280;36256;42.154;23.002;2023-04-28T03:06:46;97532.44;;;5.86;80.04
36630;BME280;36256;42.154;23.002;2023-04-28T03:09:14;97540.81;;;5.82;80.03
36630;BME280;36256;42.154;23.002;2023-04-28T03:11:40;97544.00;;;5.84;80.96
36630;BME280;36256;42.154;23.002;2023-04-28T03:14:07;97540.47;;;5.77;81.25
36630;BME280;36256;42.154;23.002;2023-04-28T03:16:34;97549.25;;;5.75;80.84
36630;BME280;36256;42.154;23.002;2023-04-28T03:19:01;97551.75;;;5.66;80.17
36630;BME280;36256;42.154;23.002;2023-04-28T03:21:27;97547.41;;;5.65;80.67
36630;BME280;36256;42.154;23.002;2023-04-28T03:23:54;97543.00;;;5.68;80.58
36630;BME280;36256;42.154;23.002;2023-04-28T03:26:21;97544.25;;;5.63;81.18
36630;BME280;36256;42.154;23.002;2023-04-28T03:28:47;97556.56;;;5.62;80.48
36630;BME280;36256;42.154;23.002;2023-04-28T03:31:14;97561.38;;;5.58;81.21
36630;BME280;36256;42.154;23.002;2023-04-28T03:33:41;97557.03;;;5.57;81.25
36630;BME280;36256;42.154;23.002;2023-04-28T03:36:10;97569.66;;;5.65;81.45
36630;BME280;36256;42.154;23.002;2023-04-28T03:38:37;97566.56;;;5.56;82.26
36630;BME280;36256;42.154;23.002;2023-04-28T03:41:04;97570.59;;;5.51;82.41
36630;BME280;36256;42.154;23.002;2023-04-28T03:43:31;97578.94;;;5.55;81.82
36630;BME280;36256;42.154;23.002;2023-04-28T03:45:58;97585.25;;;5.59;81.41
36630;BME280;36256;42.154;23.002;2023-04-28T03:48:25;97584.41;;;5.62;81.26
36630;BME280;36256;42.154;23.002;2023-04-28T03:50:52;97593.13;;;5.64;81.43
36630;BME280;36256;42.154;23.002;2023-04-28T03:53:19;97592.31;;;5.67;80.99
36630;BME280;36256;42.154;23.002;2023-04-28T03:55:46;97585.63;;;5.57;81.16
36630;BME280;36256;42.154;23.002;2023-04-28T03:58:12;97599.06;;;5.66;80.77
36630;BME280;36256;42.154;23.002;2023-04-28T04:00:39;97602.69;;;5.63;81.56
36630;BME280;36256;42.154;23.002;2023-04-28T04:03:06;97597.13;;;5.63;81.74
36630;BME280;36256;42.154;23.002;2023-04-28T04:05:33;97603.03;;;5.69;80.79
36630;BME280;36256;42.154;23.002;2023-04-28T04:08:00;97606.66;;;5.62;81.44
36630;BME280;36256;42.154;23.002;2023-04-28T04:10:28;97612.72;;;5.57;81.96
36630;BME280;36256;42.154;23.002;2023-04-28T04:12:55;97611.59;;;5.51;82.14
36630;BME280;36256;42.154;23.002;2023-04-28T04:15:21;97610.34;;;5.52;81.33
36630;BME280;36256;42.154;23.002;2023-04-28T04:17:48;97619.81;;;5.62;81.32
36630;BME280;36256;42.154;23.002;2023-04-28T04:20:15;97616.25;;;5.61;79.57
36630;BME280;36256;42.154;23.002;2023-04-28T04:22:41;97621.31;;;5.70;80.63
36630;BME280;36256;42.154;23.002;2023-04-28T04:25:08;97622.50;;;5.69;79.47
36630;BME280;36256;42.154;23.002;2023-04-28T04:27:35;97619.72;;;5.69;80.32
36630;BME280;36256;42.154;23.002;2023-04-28T04:30:01;97624.91;;;5.70;81.78
36630;BME280;36256;42.154;23.002;2023-04-28T04:32:28;97623.63;;;5.78;80.40
36630;BME280;36256;42.154;23.002;2023-04-28T04:34:54;97628.34;;;5.81;79.16
36630;BME280;36256;42.154;23.002;2023-04-28T04:37:22;97629.13;;;5.85;80.02
36630;BME280;36256;42.154;23.002;2023-04-28T04:39:49;97622.31;;;5.90;78.79
36630;BME280;36256;42.154;23.002;2023-04-28T04:42:15;97621.81;;;5.98;77.90
36630;BME280;36256;42.154;23.002;2023-04-28T04:44:50;97617.72;;;6.06;77.46
36630;BME280;36256;42.154;23.002;2023-04-28T04:47:17;97623.59;;;6.15;77.73
36630;BME280;36256;42.154;23.002;2023-04-28T04:49:44;97620.00;;;6.15;77.24
36630;BME280;36256;42.154;23.002;2023-04-28T04:52:11;97625.44;;;6.25;76.24
36630;BME280;36256;42.154;23.002;2023-04-28T04:54:37;97627.28;;;6.39;77.03
36630;BME280;36256;42.154;23.002;2023-04-28T04:57:04;97635.56;;;6.43;75.46
36630;BME280;36256;42.154;23.002;2023-04-28T04:59:32;97633.81;;;6.56;74.60
36630;BME280;36256;42.154;23.002;2023-04-28T05:01:58;97630.06;;;6.66;74.50
36630;BME280;36256;42.154;23.002;2023-04-28T05:04:25;97630.44;;;6.68;74.41
36630;BME280;36256;42.154;23.002;2023-04-28T05:06:52;97632.13;;;6.62;73.83
36630;BME280;36256;42.154;23.002;2023-04-28T05:09:19;97634.69;;;6.76;72.86
36630;BME280;36256;42.154;23.002;2023-04-28T05:11:45;97626.72;;;6.78;70.93
36630;BME280;36256;42.154;23.002;2023-04-28T05:14:12;97618.13;;;6.92;72.25
36630;BME280;36256;42.154;23.002;2023-04-28T05:16:40;97616.44;;;6.98;68.68
36630;BME280;36256;42.154;23.002;2023-04-28T05:19:07;97619.31;;;7.18;68.58
36630;BME280;36256;42.154;23.002;2023-04-28T05:21:34;97609.53;;;7.29;68.98
36630;BME280;36256;42.154;23.002;2023-04-28T05:24:01;97619.72;;;7.39;68.39
36630;BME280;36256;42.154;23.002;2023-04-28T05:26:27;97616.47;;;7.44;68.85
36630;BME280;36256;42.154;23.002;2023-04-28T05:28:54;97613.56;;;7.51;66.97
36630;BME280;36256;42.154;23.002;2023-04-28T05:31:21;97613.00;;;7.60;66.20
36630;BME280;36256;42.154;23.002;2023-04-28T05:33:47;97607.22;;;7.70;65.12
36630;BME280;36256;42.154;23.002;2023-04-28T05:36:14;97612.09;;;7.86;66.28
36630;BME280;36256;42.154;23.002;2023-04-28T05:38:42;97605.81;;;8.02;66.77
36630;BME280;36256;42.154;23.002;2023-04-28T05:41:09;97601.88;;;8.19;65.51
36630;BME280;36256;42.154;23.002;2023-04-28T05:43:36;97602.50;;;8.46;64.45
36630;BME280;36256;42.154;23.002;2023-04-28T05:46:02;97596.44;;;8.67;61.68
36630;BME280;36256;42.154;23.002;2023-04-28T05:48:37;97590.88;;;9.31;60.95
36630;BME280;36256;42.154;23.002;2023-04-28T05:51:04;97589.78;;;10.02;58.21
36630;BME280;36256;42.154;23.002;2023-04-28T05:53:30;97595.47;;;11.07;56.95
36630;BME280;36256;42.154;23.002;2023-04-28T05:55:57;97587.88;;;11.88;50.43
36630;BME280;36256;42.154;23.002;2023-04-28T05:58:24;97572.81;;;12.69;48.22
36630;BME280;36256;42.154;23.002;2023-04-28T06:00:50;97560.59;;;12.72;46.90
36630;BME280;36256;42.154;23.002;2023-04-28T06:03:17;97550.34;;;12.78;45.53
36630;BME280;36256;42.154;23.002;2023-04-28T06:05:44;97553.16;;;13.17;45.85
36630;BME280;36256;42.154;23.002;2023-04-28T06:08:11;97536.78;;;13.43;43.72
36630;BME280;36256;42.154;23.002;2023-04-28T06:10:38;97535.81;;;13.28;44.05
36630;BME280;36256;42.154;23.002;2023-04-28T06:13:05;97545.91;;;13.92;45.27
36630;BME280;36256;42.154;23.002;2023-04-28T06:15:32;97533.66;;;13.77;43.12
36630;BME280;36256;42.154;23.002;2023-04-28T06:17:59;97529.56;;;14.42;43.14
36630;BME280;36256;42.154;23.002;2023-04-28T06:20:26;97537.44;;;14.29;42.77
36630;BME280;36256;42.154;23.002;2023-04-28T06:22:52;97537.09;;;14.45;43.17
36630;BME280;36256;42.154;23.002;2023-04-28T06:25:19;97532.91;;;14.82;42.14
36630;BME280;36256;42.154;23.002;2023-04-28T06:27:46;97538.34;;;14.53;42.25
36630;BME280;36256;42.154;23.002;2023-04-28T06:30:20;97530.38;;;14.84;40.82
36630;BME280;36256;42.154;23.002;2023-04-28T06:32:48;97563.00;;;14.85;39.73
36630;BME280;36256;42.154;23.002;2023-04-28T06:35:15;97563.97;;;14.82;40.25
36630;BME280;36256;42.154;23.002;2023-04-28T06:37:42;97567.91;;;14.84;40.41
36630;BME280;36256;42.154;23.002;2023-04-28T06:40:09;97561.25;;;14.97;41.57
36630;BME280;36256;42.154;23.002;2023-04-28T06:42:36;97559.63;;;14.72;40.20
36630;BME280;36256;42.154;23.002;2023-04-28T06:45:03;97568.63;;;14.94;41.16
36630;BME280;36256;42.154;23.002;2023-04-28T06:47:30;97580.66;;;14.62;42.61
36630;BME280;36256;42.154;23.002;2023-04-28T06:49:56;97565.34;;;15.28;39.87
36630;BME280;36256;42.154;23.002;2023-04-28T06:52:23;97582.69;;;15.54;40.70
36630;BME280;36256;42.154;23.002;2023-04-28T06:55:08;97572.22;;;15.69;40.40
36630;BME280;36256;42.154;23.002;2023-04-28T06:57:35;97585.63;;;15.59;38.60
36630;BME280;36256;42.154;23.002;2023-04-28T07:00:04;97569.84;;;15.67;38.83
36630;BME280;36256;42.154;23.002;2023-04-28T07:02:31;97562.22;;;15.26;39.27
36630;BME280;36256;42.154;23.002;2023-04-28T07:04:58;97574.94;;;15.31;38.90
36630;BME280;36256;42.154;23.002;2023-04-28T07:07:25;97567.78;;;15.44;39.01
36630;BME280;36256;42.154;23.002;2023-04-28T07:09:51;97567.44;;;15.51;37.23
36630;BME280;36256;42.154;23.002;2023-04-28T07:12:20;97553.69;;;15.35;37.25
36630;BME280;36256;42.154;23.002;2023-04-28T07:14:47;97557.25;;;15.12;38.74
36630;BME280;36256;42.154;23.002;2023-04-28T07:17:13;97554.47;;;15.03;37.92
36630;BME280;36256;42.154;23.002;2023-04-28T07:19:40;97568.31;;;15.66;38.14
36630;BME280;36256;42.154;23.002;2023-04-28T07:22:06;97555.59;;;15.62;38.01
36630;BME280;36256;42.154;23.002;2023-04-28T07:24:33;97551.25;;;15.76;37.87
36630;BME280;36256;42.154;23.002;2023-04-28T07:27:00;97562.44;;;15.94;37.16
36630;BME280;36256;42.154;23.002;2023-04-28T07:29:27;97560.03;;;16.16;37.29
36630;BME280;36256;42.154;23.002;2023-04-28T07:32:00;97556.97;;;16.43;39.67
36630;BME280;36256;42.154;23.002;2023-04-28T07:34:27;97556.91;;;16.81;37.00
36630;BME280;36256;42.154;23.002;2023-04-28T07:36:53;97548.41;;;16.67;35.93
36630;BME280;36256;42.154;23.002;2023-04-28T07:39:20;97541.06;;;17.04;36.17
36630;BME280;36256;42.154;23.002;2023-04-28T07:41:47;97545.84;;;16.54;35.46
36630;BME280;36256;42.154;23.002;2023-04-28T07:44:13;97545.84;;;17.12;36.44
36630;BME280;36256;42.154;23.002;2023-04-28T07:46:40;97546.56;;;17.27;37.92
36630;BME280;36256;42.154;23.002;2023-04-28T07:49:07;97544.81;;;17.65;34.65
36630;BME280;36256;42.154;23.002;2023-04-28T07:51:35;97554.47;;;16.74;36.77
36630;BME280;36256;42.154;23.002;2023-04-28T07:54:01;97546.19;;;17.20;38.53
36630;BME280;36256;42.154;23.002;2023-04-28T07:56:28;97543.50;;;16.82;37.04
36630;BME280;36256;42.154;23.002;2023-04-28T07:58:55;97551.13;;;16.76;38.43
36630;BME280;36256;42.154;23.002;2023-04-28T08:01:22;97541.38;;;16.91;36.18
36630;BME280;36256;42.154;23.002;2023-04-28T08:03:49;97548.94;;;17.14;37.45
36630;BME280;36256;42.154;23.002;2023-04-28T08:06:16;97531.00;;;16.44;35.45
36630;BME280;36256;42.154;23.002;2023-04-28T08:08:42;97546.25;;;16.47;39.36
36630;BME280;36256;42.154;23.002;2023-04-28T08:11:09;97541.13;;;16.22;38.14
36630;BME280;36256;42.154;23.002;2023-04-28T08:13:36;97551.41;;;16.34;38.15
36630;BME280;36256;42.154;23.002;2023-04-28T08:16:02;97543.28;;;16.41;38.24
36630;BME280;36256;42.154;23.002;2023-04-28T08:18:29;97542.69;;;16.23;38.16
36630;BME280;36256;42.154;23.002;2023-04-28T08:20:56;97543.63;;;16.20;38.80
36630;BME280;36256;42.154;23.002;2023-04-28T08:23:23;97549.94;;;16.38;36.16
36630;BME280;36256;42.154;23.002;2023-04-28T08:25:53;97568.16;;;16.23;39.41
36630;BME280;36256;42.154;23.002;2023-04-28T08:28:20;97561.16;;;15.95;38.82
36630;BME280;36256;42.154;23.002;2023-04-28T08:30:47;97572.38;;;16.27;37.18
36630;BME280;36256;42.154;23.002;2023-04-28T08:33:14;97561.19;;;16.09;38.28
36630;BME280;36256;42.154;23.002;2023-04-28T08:35:40;97569.75;;;15.86;37.08
36630;BME280;36256;42.154;23.002;2023-04-28T08:38:07;97566.69;;;16.13;38.85
36630;BME280;36256;42.154;23.002;2023-04-28T08:40:39;97570.19;;;16.08;38.35
36630;BME280;36256;42.154;23.002;2023-04-28T08:43:08;97563.34;;;16.00;38.98
36630;BME280;36256;42.154;23.002;2023-04-28T08:45:41;97561.25;;;16.24;39.65
36630;BME280;36256;42.154;23.002;2023-04-28T08:48:19;97553.25;;;16.37;39.30
36630;BME280;36256;42.154;23.002;2023-04-28T08:50:52;97558.31;;;16.33;37.96
36630;BME280;36256;42.154;23.002;2023-04-28T08:53:24;97554.63;;;16.41;40.28
36630;BME280;36256;42.154;23.002;2023-04-28T08:55:53;97554.22;;;16.34;39.01
36630;BME280;36256;42.154;23.002;2023-04-28T08:58:26;97558.81;;;16.46;42.26
36630;BME280;36256;42.154;23.002;2023-04-28T09:00:53;97548.94;;;16.27;40.11
36630;BME280;36256;42.154;23.002;2023-04-28T09:03:20;97542.09;;;16.19;40.85
36630;BME280;36256;42.154;23.002;2023-04-28T09:05:47;97536.81;;;16.26;41.45
36630;BME280;36256;42.154;23.002;2023-04-28T09:08:14;97543.13;;;16.45;40.89
36630;BME280;36256;42.154;23.002;2023-04-28T09:10:41;97537.06;;;16.81;40.78
36630;BME280;36256;42.154;23.002;2023-04-28T09:13:08;97533.31;;;17.04;40.47
36630;BME280;36256;42.154;23.002;2023-04-28T09:15:36;97536.22;;;17.24;40.13
36630;BME280;36256;42.154;23.002;2023-04-28T09:18:07;97525.25;;;17.17;38.42
36630;BME280;36256;42.154;23.002;2023-04-28T09:20:35;97522.72;;;17.19;38.48
36630;BME280;36256;42.154;23.002;2023-04-28T09:23:18;97526.38;;;17.05;39.95
36630;BME280;36256;42.154;23.002;2023-04-28T09:26:05;97526.66;;;17.07;38.32
36630;BME280;36256;42.154;23.002;2023-04-28T09:28:34;97514.13;;;17.14;40.85
36630;BME280;36256;42.154;23.002;2023-04-28T09:31:01;97510.34;;;17.02;38.53
36630;BME280;36256;42.154;23.002;2023-04-28T09:33:28;97510.63;;;17.19;40.94
36630;BME280;36256;42.154;23.002;2023-04-28T09:35:55;97512.53;;;17.27;40.99
36630;BME280;36256;42.154;23.002;2023-04-28T09:38:22;97512.41;;;17.37;39.13
36630;BME280;36256;42.154;23.002;2023-04-28T09:41:01;97500.25;;;17.36;40.40
36630;BME280;36256;42.154;23.002;2023-04-28T09:43:30;97497.47;;;17.21;40.55
36630;BME280;36256;42.154;23.002;2023-04-28T09:46:00;97496.41;;;17.54;36.76
36630;BME280;36256;42.154;23.002;2023-04-28T09:48:33;97493.94;;;17.81;34.66
36630;BME280;36256;42.154;23.002;2023-04-28T09:51:02;97473.78;;;17.79;34.50
36630;BME280;36256;42.154;23.002;2023-04-28T09:53:29;97485.31;;;17.96;36.58
36630;BME280;36256;42.154;23.002;2023-04-28T09:55:57;97475.19;;;17.89;39.87
36630;BME280;36256;42.154;23.002;2023-04-28T09:58:25;97476.69;;;17.85;38.29
36630;BME280;36256;42.154;23.002;2023-04-28T10:00:57;97470.00;;;17.88;40.31
36630;BME280;36256;42.154;23.002;2023-04-28T10:03:26;97466.81;;;18.00;33.61
36630;BME280;36256;42.154;23.002;2023-04-28T10:05:56;97460.22;;;17.89;36.00
36630;BME280;36256;42.154;23.002;2023-04-28T10:08:25;97457.50;;;18.00;37.49
36630;BME280;36256;42.154;23.002;2023-04-28T10:10:53;97459.13;;;18.07;38.41
36630;BME280;36256;42.154;23.002;2023-04-28T10:13:20;97443.25;;;18.20;38.59
36630;BME280;36256;42.154;23.002;2023-04-28T10:15:50;97447.66;;;18.21;37.45
36630;BME280;36256;42.154;23.002;2023-04-28T10:18:24;97445.63;;;18.27;36.02
36630;BME280;36256;42.154;23.002;2023-04-28T10:20:59;97448.97;;;18.26;37.00
36630;BME280;36256;42.154;23.002;2023-04-28T10:25:57;97441.63;;;18.39;37.37
36630;BME280;36256;42.154;23.002;2023-04-28T10:28:28;97448.44;;;18.47;34.95
36630;BME280;36256;42.154;23.002;2023-04-28T10:31:11;97442.06;;;18.58;39.67
36630;BME280;36256;42.154;23.002;2023-04-28T10:33:39;97436.41;;;18.32;34.39
36630;BME280;36256;42.154;23.002;2023-04-28T10:36:06;97431.81;;;18.40;34.53
36630;BME280;36256;42.154;23.002;2023-04-28T10:38:34;97426.53;;;18.53;32.12
36630;BME280;36256;42.154;23.002;2023-04-28T10:41:01;97419.91;;;18.36;35.01
36630;BME280;36256;42.154;23.002;2023-04-28T10:45:58;97411.66;;;18.38;35.91
36630;BME280;36256;42.154;23.002;2023-04-28T10:56:25;97395.28;;;18.53;33.19
36630;BME280;36256;42.154;23.002;2023-04-28T10:58:53;97399.56;;;18.43;35.83
36630;BME280;36256;42.154;23.002;2023-04-28T11:03:49;97394.72;;;18.49;34.79
36630;BME280;36256;42.154;23.002;2023-04-28T11:06:27;97387.84;;;18.61;36.47
36630;BME280;36256;42.154;23.002;2023-04-28T11:08:58;97380.94;;;18.73;35.22
36630;BME280;36256;42.154;23.002;2023-04-28T11:11:27;97380.66;;;18.40;31.51
36630;BME280;36256;42.154;23.002;2023-04-28T11:16:52;97377.72;;;18.29;32.40
36630;BME280;36256;42.154;23.002;2023-04-28T11:19:23;97365.72;;;18.14;31.48
36630;BME280;36256;42.154;23.002;2023-04-28T11:21:52;97361.31;;;18.39;37.24
36630;BME280;36256;42.154;23.002;2023-04-28T11:24:20;97361.72;;;18.57;34.48
36630;BME280;36256;42.154;23.002;2023-04-28T11:26:47;97363.28;;;18.58;37.25
36630;BME280;36256;42.154;23.002;2023-04-28T11:29:14;97363.28;;;18.58;36.55
36630;BME280;36256;42.154;23.002;2023-04-28T11:31:48;97346.53;;;18.66;34.16
36630;BME280;36256;42.154;23.002;2023-04-28T11:34:20;97353.53;;;18.70;30.00
36630;BME280;36256;42.154;23.002;2023-04-28T11:36:48;97342.47;;;18.78;38.04
36630;BME280;36256;42.154;23.002;2023-04-28T11:39:14;97327.81;;;18.48;30.33
36630;BME280;36256;42.154;23.002;2023-04-28T11:41:43;97317.75;;;18.53;30.74
36630;BME280;36256;42.154;23.002;2023-04-28T11:46:48;97333.50;;;18.91;31.70
36630;BME280;36256;42.154;23.002;2023-04-28T11:49:28;97328.66;;;19.02;35.50
36630;BME280;36256;42.154;23.002;2023-04-28T11:51:56;97325.28;;;19.04;34.06
36630;BME280;36256;42.154;23.002;2023-04-28T11:54:27;97314.44;;;19.08;36.91
36630;BME280;36256;42.154;23.002;2023-04-28T11:56:55;97320.91;;;19.03;34.21
36630;BME280;36256;42.154;23.002;2023-04-28T11:59:27;97311.50;;;18.86;34.94
36630;BME280;36256;42.154;23.002;2023-04-28T12:01:59;97320.13;;;19.08;35.90
36630;BME280;36256;42.154;23.002;2023-04-28T12:07:06;97306.09;;;18.93;30.59
36630;BME280;36256;42.154;23.002;2023-04-28T12:09:37;97286.44;;;18.90;31.07
36630;BME280;36256;42.154;23.002;2023-04-28T12:12:05;97280.13;;;18.63;30.20
36630;BME280;36256;42.154;23.002;2023-04-28T12:14:55;97248.91;;;18.74;30.91
36630;BME280;36256;42.154;23.002;2023-04-28T12:17:27;97282.31;;;18.91;33.96
36630;BME280;36256;42.154;23.002;2023-04-28T12:19:55;97275.09;;;18.90;29.91
36630;BME280;36256;42.154;23.002;2023-04-28T12:22:23;97279.97;;;18.89;34.76
36630;BME280;36256;42.154;23.002;2023-04-28T12:25:10;97268.06;;;18.79;31.33
36630;BME280;36256;42.154;23.002;2023-04-28T12:27:38;97285.41;;;18.87;35.86
36630;BME280;36256;42.154;23.002;2023-04-28T12:30:24;97265.03;;;19.00;34.85
36630;BME280;36256;42.154;23.002;2023-04-28T12:32:51;97282.38;;;19.02;34.39
36630;BME280;36256;42.154;23.002;2023-04-28T12:35:21;97261.13;;;18.92;33.57
36630;BME280;36256;42.154;23.002;2023-04-28T12:37:47;97279.31;;;19.11;34.84
36630;BME280;36256;42.154;23.002;2023-04-28T12:40:14;97276.19;;;19.09;30.67
36630;BME280;36256;42.154;23.002;2023-04-28T12:42:41;97261.19;;;19.03;30.51
36630;BME280;36256;42.154;23.002;2023-04-28T12:45:07;97268.94;;;19.08;31.85
36630;BME280;36256;42.154;23.002;2023-04-28T12:47:36;97265.31;;;19.02;33.93
36630;BME280;36256;42.154;23.002;2023-04-28T12:50:04;97265.81;;;19.06;31.56
36630;BME280;36256;42.154;23.002;2023-04-28T12:52:31;97256.28;;;19.14;30.85
36630;BME280;36256;42.154;23.002;2023-04-28T12:55:03;97264.56;;;19.07;31.86
36630;BME280;36256;42.154;23.002;2023-04-28T12:57:30;97267.41;;;19.18;35.00
36630;BME280;36256;42.154;23.002;2023-04-28T12:59:56;97268.50;;;19.26;31.25
36630;BME280;36256;42.154;23.002;2023-04-28T13:02:23;97260.50;;;19.30;33.92
36630;BME280;36256;42.154;23.002;2023-04-28T13:04:50;97249.09;;;19.30;31.22
36630;BME280;36256;42.154;23.002;2023-04-28T13:07:18;97241.59;;;19.27;30.50
36630;BME280;36256;42.154;23.002;2023-04-28T13:09:45;97254.28;;;19.31;31.39
36630;BME280;36256;42.154;23.002;2023-04-28T13:12:13;97255.63;;;19.36;34.18
36630;BME280;36256;42.154;23.002;2023-04-28T13:14:40;97256.59;;;19.33;31.21
36630;BME280;36256;42.154;23.002;2023-04-28T13:17:07;97258.97;;;19.40;31.43
36630;BME280;36256;42.154;23.002;2023-04-28T13:19:35;97249.16;;;19.46;32.26
36630;BME280;36256;42.154;23.002;2023-04-28T13:22:02;97249.16;;;19.46;30.34